Meteorological Department St. Maarten FORECAST FOLDER

Comments

Transcription

Meteorological Department St. Maarten FORECAST FOLDER
Meteorological Department St. Maarten
FORECAST FOLDER
The standard of time used throughout this folder is GMT
ROUTE: ST. MAARTEN / FRANCE
DATE ISSUED: January 17th, 2016
TIME ISSUED: 24:00Z
FORECASTER: CONNOR
Meteorological Department St. Maarten
Airport Rd. # 69, Simpson Bay
(1-721) 545-2024 or (1-721) 545-4226
Fax: (1-721) 545-2998
E-Mail: [email protected]
FLIGHT ORIGIN:
PRINCESS JULIANA INTERNATIONAL (TNCM)
SUNRISE:
SUNSET:
10:47 UTC
21:58 UTC
METAR:
TNCM 172300Z 11005KT 070V140 9999 SCT019 SCT040 26/22 Q1016 A3000 NOSIG
TAF:
TNCM 172334Z 1800/1824 11005KT P6SM VCSH SCT020 SCT040
FM181400 10012KT P6SM SCT022
FM182300 10005KT P6SM SCT020
FLIGHT DESTINATION:
PARIS- AEROPORT CHARLES DE GAULLE (LFPG)
METAR: LFPG 172300Z 13007KT CAVOK M01/M03 Q1023 NOSIG
TAF:
2|P age
LFPG 172300Z 1800/1906 13008KT CAVOK
BECMG 1819/1821 07005KT BKN030 TX01/1814Z TNM03/1806Z
Meteorological Department St. Maarten
Airport Rd. # 69, Simpson Bay
(1-721) 545-2024 or (1-721) 545-4226
Fax: (1-721) 545-2998
E-Mail: [email protected]
TAFS:
TNCM 172334Z 1800/1824 11005KT P6SM VCSH SCT020 SCT040
FM181400 10012KT P6SM SCT022
FM182300 10005KT P6SM SCT020
TAF TAPA 171600Z 1718/1818 11010KT 9999 SCT019 SCT038
PROB30 TEMPO 1718/1804 SHRA
TAF TFFR 172300Z 1800/1824 VRB03KT 9999 FEW020 SCT060
BECMG 1810/1812 10012KT
PROB30 TEMPO 1812/1824 4000 SHRA SCT020TCU
TJSJ 172334Z 1800/1824 10009KT P6SM FEW025 SCT040
FM181430 08012KT P6SM SCT025 SCT050
FM182100 VRB05KT P6SM SCT030 BKN050
TAF AMD TXKF 172226Z 1722/1818 18020KT 9999 VCSH
TEMPO 1722/1724 3200 -RA BR SCT007 BKN012
PROB40 TEMPO 1722/1724 20025G35KT 2400 TSRA
PROB30 TEMPO 1723/1806 21035G50KT 1600 SHRA
BECMG 1803/1806 23035KT
PROB40 TEMPO 1803/1807 24035G55KT 3200 SHRA
BECMG 1806/1809 27025KT NSW SCT009 BKN030
TAF LPAZ 172330Z 1800/1906 17013KT 9999 SCT020
BECMG 1805/1808 21015KT SCT012 BKN030
TEMPO 1809/1824 3000 RADZ BR SCT004 BKN008
BECMG 1820/1823 27013KT
3|P age
FEW007 SCT015 BKN025
BR BKN007CB
FEW005CB BKN007
BKN009
Meteorological Department St. Maarten
Airport Rd. # 69, Simpson Bay
(1-721) 545-2024 or (1-721) 545-4226
Fax: (1-721) 545-2998
E-Mail: [email protected]
TAF LPLA 172311Z 1800/1824 20010KT 9999 FEW020
TEMPO 1802/1809 20012G28KT
BECMG 1809/1811 21015G25KT SCT020 SCT035
TEMPO 1809/1815 6000 -RADZ SCT010 BKN018
TEMPO 1815/1818 22022G35KT 4000 SHRA BKN014 FEW022CB
BECMG 1818/1821 27015KT
TAF LPPT 172330Z 1800/1906 33005KT 9999 SCT030
PROB30 TEMPO 1800/1906 8000 SHRA SCT008 BKN015
BECMG 1812/1815 33010KT
BECMG 1818/1821 VRB03KT
TAF LEMD 172300Z 1800/1906 19005KT 9999 SCT040 TX11/1814Z TNM00/1906Z
PROB40 TEMPO 1900/1906 3000 BR
PROB30 TEMPO 1902/1906 1500 BCFG BKN004
TAF LFBD 172300Z 1800/1906 12005KT 9999 BKN040
TEMPO 1804/1811 3000 -RA BKN015
PROB40 1806/1810 1500 RADZ BKN005
BECMG 1810/1812 26010KT
TEMPO 1812/1822 24015G25KT -SHRA BKN025TCU
PROB30 TEMPO 1815/1820 3000 -TSRA SCT005 BKN015CB
TEMPO 1822/1906 BKN005 TX11/1812Z TN03/1805Z
TAF LFBO 172300Z 1800/1906 VRB03KT CAVOK
BECMG 1805/1807 17007KT
BECMG 1807/1809 BKN025
TEMPO 1810/1815 4000 -RA BKN013
BECMG 1815/1817 25012KT
PROB30 TEMPO 1815/1817 25015G25KT
PROB30 TEMPO 1815/1906 -SHRA BKN015 SCT030TCU
4|P age
Meteorological Department St. Maarten
Airport Rd. # 69, Simpson Bay
(1-721) 545-2024 or (1-721) 545-4226
Fax: (1-721) 545-2998
E-Mail: [email protected]
TAF LFLL 172300Z 1800/1906 36005KT 9999 SCT020 SCT050
TEMPO 1800/1808 4000 BR BKN004
PROB40 TEMPO 1800/1807 0500 FZFG VV///
BECMG 1812/1814 18010KT
PROB40 TEMPO 1812/1821 2000 -SN BR OVC005
PROB30 TEMPO 1821/1906 18015G30KT
TAF LFRS 172300Z 1800/1906 14010KT 9999 BKN030
BECMG 1807/1809 BKN007
TEMPO 1800/1809 5000 -RADZ BKN007 BKN020
PROB30 TEMPO 1806/1809 3000 -RASN BKN004 OVC010
BECMG 1812/1815 VRB03KT
BECMG 1818/1821 04010KT
PROB40 TEMPO 1812/1906 2000 -DZ BKN003 OVC008
TAF LFPO 172300Z 1800/1906 12005KT CAVOK
PROB30 TEMPO 1818/1821 -SN SCT012 BKN020
PROB30 TEMPO 1902/1906 BKN006
TAF LFPB 172300Z 1800/1824 13008KT CAVOK
BECMG 1819/1821 07005KT BKN030
TAF LFQQ 172300Z 1800/1906 13007KT CAVOK
BECMG 1900/1903 1500 BR OVC003
TAF LFSB 172300Z 1800/1824 VRB02KT CAVOK
BECMG 1822/1824 OVC040
5|P age
Meteorological Department St. Maarten
Airport Rd. # 69, Simpson Bay
(1-721) 545-2024 or (1-721) 545-4226
Fax: (1-721) 545-2998
E-Mail: [email protected]
TAF LSGG 172325Z 1800/1906 05006KT 9999 FEW035 TXM02/1814Z TNM05/1806Z TNM04/1906Z
BECMG 1810/1812 FEW030 OVC080
BECMG 1816/1818 3000 SN SCT005 BKN010
PROB40 TEMPO 1817/1822 0500 +SN VV003
BECMG 1903/1906 NSW SCT015 BKN035
TAF ELLX 172300Z 1800/1906 07005KT CAVOK
TEMPO 1802/1809 VRB03KT 4000 BR SCT004
BECMG 1809/1812 10010KT 9999 SCT020 BKN030
BECMG 1815/1818 BKN020
PROB30 TEMPO 1900/1906 4500 -SN BKN004
TAF EBBR 172314Z 1800/1906 16004KT CAVOK
TAF LFPG 172300Z 1800/1906 13008KT CAVOK
BECMG 1819/1821 07005KT BKN030 TX01/1814Z TNM03/1806Z
6|P age
Meteorological Department St. Maarten
Airport Rd. # 69, Simpson Bay
(1-721) 545-2024 or (1-721) 545-4226
Fax: (1-721) 545-2998
E-Mail: [email protected]
SIGMETS:
WSFR32 LFPW 172208
LFBB SIGMET 2 VALID 180000/180400 LFPWLFBB BORDEAUX FIR/UIR SEV ICE FCST WI N4545 W00145 - N4630 W00130 N4630 W00045 - N4545 E00000 - N4345 E00115 - N4345 W00030 - N4530
W00130 FL070/120 MOV E 10KT NC=
WSFR35 LFPW 172208
LFRR SIGMET 2 VALID 180000/180400 LFPWLFRR BREST FIR/UIR SEV ICE FCST WI N4630 W00045 - N4630 W00130 N4545 W00145 - N4745 W00400 - N4745 W00200 FL070/120 MOV E 10KT NC=
WSIY31 LIIB 172040
LIMM SIGMET 06 VALID 172100/180100 LIMMLIMM MILANO FIR SEV TURB FCST ENTIRE FIR FL150/420 STNR NC=
WSIY32 LIIB 172035
LIRR SIGMET 06 VALID 172100/180100 LIMMLIRR ROMA FIR EMBD TS OBS S PART CB TOP AT FL220 MOV E NC.
LIRR ROMA FIR SEV TURB FCST ENTIRE FIR FL150/420 STNR NC=
WSIY33 LIIB 172030
LIBB SIGMET 06 VALID 172100/180100 LIMMLIBB BRINDISI FIR EMBD TS OBS CENTRAL AND S PART CB TOP AT FL200 MOV E WKN.
LIBB BRINDISI FIR SEV TURB FCST ENTIRE FIR FL150/420 STNR NC=
WSNO35 ENMI 172139
ENBD SIGMET D02 VALID 172200/180200 ENVNENOR NORWAY FIR OCNL SEV MTW FCST N OF N6900 AND E OF E02000 AND W
OF E02430 SFC/FL240 STNR NC=
7|P age
Meteorological Department St. Maarten
Airport Rd. # 69, Simpson Bay
(1-721) 545-2024 or (1-721) 545-4226
Fax: (1-721) 545-2998
E-Mail: [email protected]
CHARTS:
8|P age
Meteorological Department St. Maarten
Airport Rd. # 69, Simpson Bay
(1-721) 545-2024 or (1-721) 545-4226
Fax: (1-721) 545-2998
E-Mail: [email protected]
9|P age
Meteorological Department St. Maarten
Airport Rd. # 69, Simpson Bay
(1-721) 545-2024 or (1-721) 545-4226
Fax: (1-721) 545-2998
E-Mail: [email protected]
10 | P a g e
Meteorological Department St. Maarten
Airport Rd. # 69, Simpson Bay
(1-721) 545-2024 or (1-721) 545-4226
Fax: (1-721) 545-2998
E-Mail: [email protected]
11 | P a g e
Meteorological Department St. Maarten
Airport Rd. # 69, Simpson Bay
(1-721) 545-2024 or (1-721) 545-4226
Fax: (1-721) 545-2998
E-Mail: [email protected]
12 | P a g e
Meteorological Department St. Maarten
Airport Rd. # 69, Simpson Bay
(1-721) 545-2024 or (1-721) 545-4226
Fax: (1-721) 545-2998
E-Mail: [email protected]
13 | P a g e
Meteorological Department St. Maarten
Airport Rd. # 69, Simpson Bay
(1-721) 545-2024 or (1-721) 545-4226
Fax: (1-721) 545-2998
E-Mail: [email protected]
14 | P a g e
Meteorological Department St. Maarten
Airport Rd. # 69, Simpson Bay
(1-721) 545-2024 or (1-721) 545-4226
Fax: (1-721) 545-2998
E-Mail: [email protected]
15 | P a g e
Meteorological Department St. Maarten
Airport Rd. # 69, Simpson Bay
(1-721) 545-2024 or (1-721) 545-4226
Fax: (1-721) 545-2998
E-Mail: [email protected]
16 | P a g e

Similar documents

Exam Met Nav Booklet

Exam Met Nav Booklet TAF FAPM 230900Z 2310/2318 31005KT CAVOK BECMG 2310/2312 9999 SCT025 TEMPO 2313/2318 4000 TSRA BKN010 FEW035CB BKN080 BECMG 2315/2317 VRB03KT TX33/2311ZTN22/2318Z= Freestate TAF FABL 231000Z 2312/2...

More information

Briefing - superconnie

Briefing - superconnie BATUGADE-ABEAM WINI-OECUSSI FLIGHT SUAI TO OECUSSI SHALL JOIN ABOVE ROUTE AT OTORA. FLIGHT OECUSSI TO SUAI SHALL LEAVE ABOVE ROUTE AT OTORA INFORMATION ON AIP ENR.1.10.2 PARAGRAPH 6.1 AND 6.2 WILL BE

More information

Rosenthal Advertising Material Overview

Rosenthal Advertising Material Overview Rosenthal Advertising Material Overview  NUMBER 

More information